Back to Top

Language: 

My Weather Underground Personal Weather Station Historical Data with Graphs...

Delerius Weather Station Historical Data
Daily Summary for March 25, 2017 Units:  Metric    English   Both
« Previous Day
Next Day »
Daily Weekly Monthly Yearly Custom
  High: Low: Average:
Temperature: 15.8 °C -2.2 °C 6.5 °C
Dew Point: 4.3 °C -3.8 °C -0.8 °C
Humidity: 97 % 26 % 66 %
Wind Speed: 8 km/h 0 km/h 1.6 km/h
Wind Gust: 24.1 km/h - -
Wind:- - East
Pressure: 1036.1 hPa 1028.7 hPa -
Precipitation: 0 mm    
Historical Graphs
 
 
Tabular Data for March 25, 2017
Time Temperature Dew Point Pressure Wind Wind Speed Wind Gust Humidity Rainfall Rate (Hourly) solar Conditions
00:00 0.7 °C -0.8 °C 1036.1 hPa Calm     90 % 0 mm 0 W/m2
00:05 0.6 °C -0.8 °C 1036.1 hPa Calm     90 % 0 mm 0 W/m2
00:11 0.6 °C -0.8 °C 1035.8 hPa Calm     90 % 0 mm 0 W/m2
00:16 0.5 °C -0.9 °C 1036.1 hPa Calm     90 % 0 mm 0 W/m2
00:21 0.4 °C -1.1 °C 1035.8 hPa Calm     90 % 0 mm 0 W/m2
00:26 0.3 °C -1 °C 1036.1 hPa Calm     91 % 0 mm 0 W/m2
00:31 0.3 °C -1.2 °C 1036.1 hPa Calm     90 % 0 mm 0 W/m2
00:36 0.2 °C -1.2 °C 1035.8 hPa Calm   1.6 km/h 90 % 0 mm 0 W/m2
00:41 0.1 °C -1.3 °C 1035.8 hPa Calm   1.6 km/h 90 % 0 mm 0 W/m2
00:46 0 °C -1.4 °C 1035.8 hPa Calm   1.6 km/h 90 % 0 mm 0 W/m2
00:51 -0.1 °C -1.6 °C 1035.8 hPa Calm   1.6 km/h 90 % 0 mm 0 W/m2
00:56 -0.2 °C -1.5 °C 1035.8 hPa Calm     91 % 0 mm 0 W/m2
00:58 -0.2 °C -1.5 °C 1035.8 hPa Calm     91 % 0 mm 0 W/m2
01:03 -0.2 °C -1.5 °C 1035.8 hPa Calm     91 % 0 mm 0 W/m2
01:08 -0.2 °C -1.5 °C 1035.8 hPa Calm     91 % 0 mm 0 W/m2
01:13 -0.3 °C -1.6 °C 1035.8 hPa Calm     91 % 0 mm 0 W/m2
01:18 -0.3 °C -1.4 °C 1035.8 hPa Calm     92 % 0 mm 0 W/m2
01:23 -0.4 °C -1.7 °C 1035.8 hPa Calm     91 % 0 mm 0 W/m2
01:28 -0.4 °C -1.6 °C 1035.8 hPa Calm     92 % 0 mm 0 W/m2
01:33 -0.4 °C -1.6 °C 1035.8 hPa Calm     92 % 0 mm 0 W/m2
01:34 -0.3 °C -1.4 °C 1035.8 hPa Calm     92 % 0 mm 0 W/m2
01:39 -0.4 °C -1.6 °C 1035.8 hPa Calm     92 % 0 mm 0 W/m2
01:44 -0.5 °C -1.7 °C 1035.8 hPa Calm     92 % 0 mm 0 W/m2
01:49 -0.6 °C -1.7 °C 1035.4 hPa Calm   1.6 km/h 92 % 0 mm 0 W/m2
01:54 -0.6 °C -1.7 °C 1035.4 hPa Calm   1.6 km/h 92 % 0 mm 0 W/m2
01:59 -0.6 °C -1.7 °C 1035.4 hPa Calm   1.6 km/h 92 % 0 mm 0 W/m2
02:04 -0.7 °C -1.8 °C 1035.4 hPa Calm     92 % 0 mm 0 W/m2
02:09 -0.7 °C -1.8 °C 1035.4 hPa Calm     92 % 0 mm 0 W/m2
02:14 -0.8 °C -1.9 °C 1035.4 hPa Calm     92 % 0 mm 0 W/m2
02:19 -0.9 °C -2.1 °C 1035.4 hPa Calm     92 % 0 mm 0 W/m2
02:24 -0.9 °C -1.9 °C 1035.4 hPa Calm     93 % 0 mm 0 W/m2
02:29 -0.9 °C -1.9 °C 1035.4 hPa Calm   3.2 km/h 93 % 0 mm 0 W/m2
02:34 -0.9 °C -1.9 °C 1035.1 hPa Calm   3.2 km/h 93 % 0 mm 0 W/m2
02:39 -1 °C -2 °C 1035.1 hPa Calm   1.6 km/h 93 % 0 mm 0 W/m2
02:44 -1.1 °C -2.1 °C 1035.1 hPa Calm   1.6 km/h 93 % 0 mm 0 W/m2
02:49 -1.1 °C -2.1 °C 1035.1 hPa Calm   1.6 km/h 93 % 0 mm 0 W/m2
02:54 -1.1 °C -2.1 °C 1035.1 hPa Calm     93 % 0 mm 0 W/m2
02:59 -1.1 °C -2.1 °C 1035.1 hPa Calm   1.6 km/h 93 % 0 mm 0 W/m2
03:04 -1.1 °C -2.1 °C 1035.1 hPa Calm   1.6 km/h 93 % 0 mm 0 W/m2
03:05 -1.1 °C -2.1 °C 1035.1 hPa Calm   1.6 km/h 93 % 0 mm 0 W/m2
03:10 -1.2 °C -2.2 °C 1035.1 hPa Calm     93 % 0 mm 0 W/m2
03:15 -1.2 °C -2.2 °C 1035.1 hPa Calm     93 % 0 mm 0 W/m2
03:20 -1.2 °C -2.2 °C 1035.1 hPa Calm     93 % 0 mm 0 W/m2
03:25 -1.3 °C -2.3 °C 1034.8 hPa Calm     93 % 0 mm 0 W/m2
03:30 -1.3 °C -2.3 °C 1034.8 hPa Calm     93 % 0 mm 0 W/m2
03:35 -1.4 °C -2.4 °C 1034.8 hPa Calm     93 % 0 mm 0 W/m2
03:40 -1.4 °C -2.2 °C 1034.8 hPa Calm   1.6 km/h 94 % 0 mm 0 W/m2
03:45 -1.4 °C -2.4 °C 1034.8 hPa Calm   1.6 km/h 93 % 0 mm 0 W/m2
03:50 -1.4 °C -2.4 °C 1034.8 hPa Calm   1.6 km/h 93 % 0 mm 0 W/m2
03:55 -1.5 °C -2.5 °C 1034.8 hPa Calm     93 % 0 mm 0 W/m2
04:00 -1.6 °C -2.4 °C 1034.8 hPa Calm     94 % 0 mm 0 W/m2
04:05 -1.4 °C -2.2 °C 1034.8 hPa Calm   1.6 km/h 94 % 0 mm 0 W/m2
04:10 -1.4 °C -2.2 °C 1034.8 hPa Calm   1.6 km/h 94 % 0 mm 0 W/m2
04:15 -1.5 °C -2.3 °C 1034.8 hPa Calm     94 % 0 mm 0 W/m2
04:20 -1.5 °C -2.3 °C 1034.8 hPa Calm     94 % 0 mm 0 W/m2
04:25 -1.6 °C -2.4 °C 1034.4 hPa Calm     94 % 0 mm 0 W/m2
04:30 -1.6 °C -2.4 °C 1034.4 hPa Calm     94 % 0 mm 0 W/m2
04:35 -1.7 °C -2.6 °C 1034.4 hPa Calm     94 % 0 mm 0 W/m2
04:40 -1.8 °C -2.6 °C 1034.4 hPa Calm     94 % 0 mm 0 W/m2
04:45 -1.8 °C -2.6 °C 1034.4 hPa Calm     94 % 0 mm 0 W/m2
04:50 -1.9 °C -2.7 °C 1034.4 hPa Calm     94 % 0 mm 0 W/m2
04:55 -1.9 °C -2.7 °C 1034.4 hPa Calm     94 % 0 mm 0 W/m2
05:00 -1.9 °C -2.7 °C 1034.4 hPa Calm     94 % 0 mm 0 W/m2
05:05 -1.9 °C -2.7 °C 1034.4 hPa Calm     94 % 0 mm 0 W/m2
05:10 -1.9 °C -2.7 °C 1034.4 hPa Calm     94 % 0 mm 0 W/m2
05:15 -1.9 °C -2.7 °C 1034.4 hPa Calm     94 % 0 mm 0 W/m2
05:20 -2 °C -2.8 °C 1034.4 hPa Calm   3.2 km/h 94 % 0 mm 0 W/m2
05:25 -2.1 °C -2.9 °C 1034.4 hPa Calm   3.2 km/h 94 % 0 mm 0 W/m2
05:30 -2.1 °C -2.9 °C 1034.4 hPa Calm     94 % 0 mm 0 W/m2
05:35 -2.1 °C -2.9 °C 1034.4 hPa Calm     94 % 0 mm 0 W/m2
05:40 -2 °C -2.8 °C 1034.4 hPa Calm     94 % 0 mm 0 W/m2
05:45 -2 °C -2.8 °C 1034.4 hPa Calm   3.2 km/h 94 % 0 mm 0 W/m2
05:50 -2.1 °C -2.9 °C 1034.4 hPa Calm   3.2 km/h 94 % 0 mm 0 W/m2
05:56 -2.1 °C -2.9 °C 1034.4 hPa Calm   1.6 km/h 94 % 0 mm 0 W/m2
06:01 -2.1 °C -2.9 °C 1034.4 hPa Calm     94 % 0 mm 0 W/m2
06:06 -2.1 °C -2.9 °C 1034.4 hPa Calm     94 % 0 mm 5 W/m2
06:11 -2.2 °C -3.1 °C 1034.4 hPa Calm     94 % 0 mm 9 W/m2
06:16 -2.2 °C -2.9 °C 1034.4 hPa Calm     95 % 0 mm 11 W/m2
06:21 -2.1 °C -2.8 °C 1034.1 hPa Calm     95 % 0 mm 12 W/m2
06:26 -2 °C -2.7 °C 1034.1 hPa Calm     95 % 0 mm 14 W/m2
06:31 -2 °C -2.7 °C 1034.1 hPa Calm   1.6 km/h 95 % 0 mm 16 W/m2
06:41 -1.9 °C -2.6 °C 1034.1 hPa Calm     95 % 0 mm 19 W/m2
06:46 -1.9 °C -2.6 °C 1034.1 hPa Calm     95 % 0 mm 21 W/m2
06:51 -1.9 °C -2.6 °C 1034.1 hPa Calm     95 % 0 mm 25 W/m2
06:56 -1.9 °C -2.6 °C 1034.4 hPa Calm     95 % 0 mm 28 W/m2
07:01 -1.8 °C -2.5 °C 1034.1 hPa Calm     95 % 0 mm 54 W/m2
07:06 -1.6 °C -2.3 °C 1034.4 hPa Calm     95 % 0 mm 121 W/m2
07:11 -1.2 °C -1.8 °C 1034.4 hPa Calm     96 % 0 mm 153 W/m2
07:16 -0.6 °C -1.2 °C 1034.4 hPa Calm     96 % 0 mm 185 W/m2
07:21 0.1 °C -0.3 °C 1034.4 hPa Calm     97 % 0 mm 204 W/m2
07:26 0.7 °C 0.3 °C 1034.4 hPa Calm     97 % 0 mm 206 W/m2
07:32 1.2 °C 0.8 °C 1034.4 hPa Calm     97 % 0 mm 214 W/m2
07:37 1.4 °C 0.8 °C 1034.4 hPa Calm     96 % 0 mm 223 W/m2
07:42 1.7 °C 1.1 °C 1034.4 hPa Calm     96 % 0 mm 234 W/m2
07:47 1.9 °C 1.2 °C 1034.4 hPa Calm     95 % 0 mm 218 W/m2
07:52 2.2 °C 1.3 °C 1034.4 hPa Calm     94 % 0 mm 244 W/m2
07:57 2.4 °C 1.4 °C 1034.4 hPa Calm     93 % 0 mm 271 W/m2
08:02 2.7 °C 1.6 °C 1034.4 hPa Calm     92 % 0 mm 283 W/m2
08:07 3 °C 1.8 °C 1034.4 hPa Calm     92 % 0 mm 272 W/m2
08:12 3.3 °C 1.9 °C 1034.4 hPa Calm     91 % 0 mm 304 W/m2
08:17 3.6 °C 2.1 °C 1034.4 hPa Calm     90 % 0 mm 308 W/m2
08:22 4.1 °C 2.4 °C 1034.4 hPa Calm     89 % 0 mm 281 W/m2
08:27 4.7 °C 2.6 °C 1034.4 hPa Calm     86 % 0 mm 364 W/m2
08:32 5.2 °C 2.7 °C 1034.4 hPa Calm     84 % 0 mm 378 W/m2
08:37 5.7 °C 3.1 °C 1034.4 hPa Calm     83 % 0 mm 385 W/m2
08:42 6.1 °C 3.1 °C 1034.4 hPa Calm     81 % 0 mm 390 W/m2
08:47 6.4 °C 3 °C 1034.4 hPa Calm     79 % 0 mm 410 W/m2
08:52 6.9 °C 3.2 °C 1034.4 hPa Calm     77 % 0 mm 417 W/m2
08:57 7.2 °C 3.2 °C 1034.4 hPa Calm     76 % 0 mm 429 W/m2
09:02 7.6 °C 3.6 °C 1034.4 hPa Calm   3.2 km/h 76 % 0 mm 450 W/m2
09:07 8 °C 3.8 °C 1034.4 hPa ENE 1.6 km/h 6.4 km/h 75 % 0 mm 454 W/m2
09:12 8.4 °C 4.1 °C 1034.4 hPa ENE 1.6 km/h 6.4 km/h 74 % 0 mm 468 W/m2
09:17 8.7 °C 4.3 °C 1034.4 hPa Calm   3.2 km/h 74 % 0 mm 483 W/m2
09:22 9.1 °C 4.1 °C 1034.4 hPa ENE 1.6 km/h 4.8 km/h 71 % 0 mm 496 W/m2
09:27 9.3 °C 3.9 °C 1034.8 hPa ENE 1.6 km/h 6.4 km/h 69 % 0 mm 508 W/m2
09:32 9.5 °C 3.9 °C 1034.8 hPa ENE 1.6 km/h 6.4 km/h 68 % 0 mm 526 W/m2
09:37 9.6 °C 3.6 °C 1034.4 hPa SE 1.6 km/h 8 km/h 66 % 0 mm 536 W/m2
09:42 9.6 °C 3.6 °C 1034.4 hPa SE 1.6 km/h 8 km/h 66 % 0 mm 550 W/m2
09:47 9.7 °C 3.4 °C 1034.4 hPa SSE 1.6 km/h 8 km/h 65 % 0 mm 557 W/m2
09:52 9.7 °C 3.4 °C 1034.4 hPa South 1.6 km/h 8 km/h 65 % 0 mm 557 W/m2
09:57 9.9 °C 3.6 °C 1034.1 hPa South 1.6 km/h 9.7 km/h 65 % 0 mm 571 W/m2
10:02 10.2 °C 3.4 °C 1034.4 hPa SSE 3.2 km/h 9.7 km/h 63 % 0 mm 582 W/m2
10:07 10.5 °C 3.5 °C 1034.4 hPa SSE 3.2 km/h 9.7 km/h 62 % 0 mm 591 W/m2
10:12 10.6 °C 2.9 °C 1034.4 hPa SE 1.6 km/h 9.7 km/h 59 % 0 mm 592 W/m2
10:17 10.8 °C 3.3 °C 1034.1 hPa SE 3.2 km/h 9.7 km/h 60 % 0 mm 603 W/m2
10:23 11.1 °C 2.9 °C 1034.1 hPa SSE 1.6 km/h 9.7 km/h 57 % 0 mm 603 W/m2
10:28 11.2 °C 2.5 °C 1034.1 hPa SE 3.2 km/h 8 km/h 55 % 0 mm 608 W/m2
10:33 11.4 °C 2.4 °C 1034.1 hPa SE 3.2 km/h 8 km/h 54 % 0 mm 613 W/m2
10:38 11.6 °C 1.5 °C 1034.1 hPa SE 3.2 km/h 9.7 km/h 50 % 0 mm 619 W/m2
10:43 11.6 °C 0.9 °C 1034.1 hPa SE 4.8 km/h 9.7 km/h 48 % 0 mm 610 W/m2
10:48 11.6 °C 0.9 °C 1034.1 hPa SE 3.2 km/h 8 km/h 48 % 0 mm 605 W/m2
10:53 11.8 °C 1.1 °C 1033.7 hPa ESE 1.6 km/h 11.3 km/h 48 % 0 mm 615 W/m2
10:58 12 °C 1.3 °C 1033.7 hPa East 1.6 km/h 11.3 km/h 48 % 0 mm 619 W/m2
11:03 12.2 °C 1.2 °C 1033.7 hPa East 1.6 km/h 9.7 km/h 47 % 0 mm 650 W/m2
11:08 12.3 °C 0.1 °C 1033.7 hPa East 3.2 km/h 9.7 km/h 43 % 0 mm 666 W/m2
11:13 12.3 °C 1 °C 1033.7 hPa East 3.2 km/h 9.7 km/h 46 % 0 mm 677 W/m2
11:18 12.4 °C -0.2 °C 1033.7 hPa ESE 4.8 km/h 9.7 km/h 42 % 0 mm 666 W/m2
11:23 12.4 °C -0.5 °C 1033.7 hPa ESE 4.8 km/h 9.7 km/h 41 % 0 mm 621 W/m2
11:28 12.6 °C 1.6 °C 1033.4 hPa ESE 4.8 km/h 11.3 km/h 47 % 0 mm 682 W/m2
11:33 12.8 °C 1.4 °C 1033.4 hPa ESE 3.2 km/h 11.3 km/h 46 % 0 mm 684 W/m2
11:38 12.9 °C 0.9 °C 1033.4 hPa ESE 1.6 km/h 11.3 km/h 44 % 0 mm 689 W/m2
11:43 13.1 °C -0.2 °C 1033.1 hPa ENE 3.2 km/h 11.3 km/h 40 % 0 mm 689 W/m2
11:48 13.1 °C -0.2 °C 1033.1 hPa NE 3.2 km/h 11.3 km/h 40 % 0 mm 691 W/m2
11:53 13 °C -0.7 °C 1033.1 hPa NE 4.8 km/h 11.3 km/h 39 % 0 mm 698 W/m2
11:58 13.2 °C -0.4 °C 1033.1 hPa ENE 4.8 km/h 9.7 km/h 39 % 0 mm 698 W/m2
12:03 13.4 °C -0.3 °C 1033.1 hPa East 1.6 km/h 9.7 km/h 39 % 0 mm 689 W/m2
12:08 13.6 °C -0.1 °C 1032.7 hPa East 3.2 km/h 9.7 km/h 39 % 0 mm 698 W/m2
12:13 13.7 °C -1.1 °C 1032.7 hPa East 4.8 km/h 9.7 km/h 36 % 0 mm 693 W/m2
12:18 13.9 °C 0.2 °C 1032.7 hPa East 3.2 km/h 9.7 km/h 39 % 0 mm 696 W/m2
12:23 14 °C -1.2 °C 1032.7 hPa East 3.2 km/h 9.7 km/h 35 % 0 mm 694 W/m2
12:28 14.1 °C -1.6 °C 1032.7 hPa East 3.2 km/h 9.7 km/h 34 % 0 mm 691 W/m2
12:33 14.2 °C -1.1 °C 1032.4 hPa ESE 4.8 km/h 11.3 km/h 35 % 0 mm 677 W/m2
12:38 14.3 °C -0.2 °C 1032.4 hPa ESE 4.8 km/h 11.3 km/h 37 % 0 mm 694 W/m2
12:43 14.4 °C -0.9 °C 1032.4 hPa East 4.8 km/h 11.3 km/h 35 % 0 mm 694 W/m2
12:48 14.4 °C -3 °C 1032.1 hPa ESE 8 km/h 16.1 km/h 30 % 0 mm 622 W/m2
12:53 14.4 °C -1.3 °C 1032.1 hPa ESE 6.4 km/h 16.1 km/h 34 % 0 mm 689 W/m2
12:58 14.5 °C -1.6 °C 1032.1 hPa ESE 4.8 km/h 11.3 km/h 33 % 0 mm 687 W/m2
13:03 14.4 °C -0.9 °C 1032.1 hPa ESE 3.2 km/h 11.3 km/h 35 % 0 mm 684 W/m2
13:08 14.7 °C 0.2 °C 1032.1 hPa ESE 4.8 km/h 14.5 km/h 37 % 0 mm 680 W/m2
13:14 14.9 °C -0.4 °C 1031.7 hPa ESE 6.4 km/h 17.7 km/h 35 % 0 mm 647 W/m2
13:19 15.1 °C -0.7 °C 1031.7 hPa East 4.8 km/h 17.7 km/h 34 % 0 mm 666 W/m2
13:24 15.1 °C -1.1 °C 1031.7 hPa East 3.2 km/h 8 km/h 33 % 0 mm 654 W/m2
13:29 15.1 °C -0.7 °C 1031.4 hPa SE 4.8 km/h 24.1 km/h 34 % 0 mm 631 W/m2
13:34 14.9 °C -1.3 °C 1031.7 hPa ESE 8 km/h 24.1 km/h 33 % 0 mm 636 W/m2
13:39 14.8 °C -1.8 °C 1031.4 hPa ENE 6.4 km/h 14.5 km/h 32 % 0 mm 642 W/m2
13:44 14.9 °C -2.6 °C 1031.4 hPa East 4.8 km/h 12.9 km/h 30 % 0 mm 631 W/m2
13:49 14.8 °C -1.8 °C 1031 hPa East 6.4 km/h 14.5 km/h 32 % 0 mm 490 W/m2
13:54 14.7 °C -2.3 °C 1031 hPa ENE 4.8 km/h 14.5 km/h 31 % 0 mm 584 W/m2
13:59 14.8 °C -2.2 °C 1031 hPa East 4.8 km/h 11.3 km/h 31 % 0 mm 598 W/m2
14:04 14.9 °C -1.7 °C 1031 hPa ESE 6.4 km/h 12.9 km/h 32 % 0 mm 610 W/m2
14:09 15.1 °C -1.1 °C 1030.7 hPa ESE 3.2 km/h 12.9 km/h 33 % 0 mm 585 W/m2
14:14 15.3 °C -2.2 °C 1030.7 hPa East 4.8 km/h 12.9 km/h 30 % 0 mm 548 W/m2
14:19 15.2 °C -2.3 °C 1030.7 hPa East 4.8 km/h 12.9 km/h 30 % 0 mm 547 W/m2
14:24 15.3 °C -2.2 °C 1030.4 hPa East 4.8 km/h 9.7 km/h 30 % 0 mm 554 W/m2
14:29 15.4 °C -1.7 °C 1030.4 hPa East 4.8 km/h 11.3 km/h 31 % 0 mm 550 W/m2
14:34 15.4 °C -2.1 °C 1030.4 hPa East 4.8 km/h 11.3 km/h 30 % 0 mm 557 W/m2
14:39 15.6 °C -1.9 °C 1030.4 hPa ESE 4.8 km/h 11.3 km/h 30 % 0 mm 541 W/m2
14:44 15.6 °C -1.9 °C 1030.4 hPa East 4.8 km/h 11.3 km/h 30 % 0 mm 543 W/m2
14:49 15.7 °C -2.3 °C 1030.4 hPa East 3.2 km/h 11.3 km/h 29 % 0 mm 527 W/m2
14:54 15.7 °C -2.8 °C 1030 hPa ESE 4.8 km/h 14.5 km/h 28 % 0 mm 492 W/m2
14:59 15.7 °C -2.8 °C 1030 hPa East 6.4 km/h 14.5 km/h 28 % 0 mm 403 W/m2
15:04 15.8 °C -3.2 °C 1030 hPa East 4.8 km/h 14.5 km/h 27 % 0 mm 394 W/m2
15:09 15.7 °C -3.3 °C 1030 hPa East 6.4 km/h 14.5 km/h 27 % 0 mm 373 W/m2
15:14 15.7 °C -3.8 °C 1030 hPa East 4.8 km/h 14.5 km/h 26 % 0 mm 438 W/m2
15:19 15.7 °C -2.8 °C 1029.7 hPa East 4.8 km/h 14.5 km/h 28 % 0 mm 418 W/m2
15:24 15.6 °C -2.4 °C 1029.7 hPa East 6.4 km/h 12.9 km/h 29 % 0 mm 410 W/m2
15:29 15.6 °C -2.9 °C 1029.7 hPa East 4.8 km/h 12.9 km/h 28 % 0 mm 399 W/m2
15:34 15.5 °C -3.4 °C 1029.7 hPa East 4.8 km/h 11.3 km/h 27 % 0 mm 360 W/m2
15:39 15.4 °C -3.6 °C 1029.7 hPa East 4.8 km/h 11.3 km/h 27 % 0 mm 396 W/m2
15:44 15.4 °C -3.6 °C 1029.7 hPa East 3.2 km/h 9.7 km/h 27 % 0 mm 388 W/m2
15:49 15.5 °C -3.4 °C 1029.7 hPa East 3.2 km/h 9.7 km/h 27 % 0 mm 366 W/m2
15:54 15.6 °C -2.9 °C 1029.3 hPa East 3.2 km/h 11.3 km/h 28 % 0 mm 348 W/m2
15:59 15.5 °C -2.9 °C 1029.3 hPa East 3.2 km/h 11.3 km/h 28 % 0 mm 297 W/m2
16:04 15.4 °C -2.6 °C 1029.3 hPa East 4.8 km/h 11.3 km/h 29 % 0 mm 325 W/m2
16:10 15.3 °C -2.2 °C 1029 hPa East 3.2 km/h 11.3 km/h 30 % 0 mm 320 W/m2
16:15 15.3 °C -2.7 °C 1029 hPa ESE 4.8 km/h 14.5 km/h 29 % 0 mm 304 W/m2
16:20 15.3 °C -1.8 °C 1029 hPa ESE 8 km/h 14.5 km/h 31 % 0 mm 274 W/m2
16:25 15.1 °C -2.8 °C 1029 hPa ESE 8 km/h 14.5 km/h 29 % 0 mm 271 W/m2
16:30 15.1 °C -2.8 °C 1029 hPa ESE 8 km/h 16.1 km/h 29 % 0 mm 264 W/m2
16:35 14.9 °C -2.6 °C 1029 hPa ESE 8 km/h 16.1 km/h 30 % 0 mm 232 W/m2
16:40 14.9 °C -3 °C 1029 hPa East 6.4 km/h 14.5 km/h 29 % 0 mm 237 W/m2
16:45 15 °C -2.9 °C 1029 hPa ESE 6.4 km/h 14.5 km/h 29 % 0 mm 209 W/m2
16:50 14.9 °C -3 °C 1029 hPa ESE 6.4 km/h 17.7 km/h 29 % 0 mm 211 W/m2
16:55 14.8 °C -2.6 °C 1028.7 hPa East 6.4 km/h 17.7 km/h 30 % 0 mm 197 W/m2
17:00 14.7 °C -2.3 °C 1029 hPa East 4.8 km/h 14.5 km/h 31 % 0 mm 185 W/m2
17:05 14.6 °C -2.4 °C 1029 hPa ENE 4.8 km/h 12.9 km/h 31 % 0 mm 151 W/m2
17:10 14.5 °C -2 °C 1029 hPa ENE 4.8 km/h 12.9 km/h 32 % 0 mm 137 W/m2
17:15 14.3 °C -1.8 °C 1029 hPa ENE 4.8 km/h 11.3 km/h 33 % 0 mm 137 W/m2
17:21 14.2 °C -1.4 °C 1029 hPa ENE 4.8 km/h 11.3 km/h 34 % 0 mm 123 W/m2
17:26 14.1 °C -1.6 °C 1029 hPa East 3.2 km/h 11.3 km/h 34 % 0 mm 100 W/m2
17:31 14.1 °C -1.9 °C 1029 hPa East 4.8 km/h 14.5 km/h 33 % 0 mm 63 W/m2
17:36 13.8 °C -2.2 °C 1029 hPa ENE 4.8 km/h 14.5 km/h 33 % 0 mm 58 W/m2
17:41 13.6 °C -2 °C 1029 hPa ENE 3.2 km/h 11.3 km/h 34 % 0 mm 47 W/m2
17:46 13.4 °C -2.2 °C 1029 hPa ENE 3.2 km/h 8 km/h 34 % 0 mm 47 W/m2
17:51 13.3 °C -1.8 °C 1029 hPa ENE 3.2 km/h 8 km/h 35 % 0 mm 39 W/m2
17:56 13.1 °C -2.1 °C 1029 hPa ENE 1.6 km/h 8 km/h 35 % 0 mm 30 W/m2
18:01 13 °C -2.1 °C 1029 hPa ENE 1.6 km/h 8 km/h 35 % 0 mm 21 W/m2
18:06 12.8 °C -1.9 °C 1029 hPa ENE 1.6 km/h 6.4 km/h 36 % 0 mm 16 W/m2
18:11 12.7 °C -1.6 °C 1029 hPa ENE 1.6 km/h 6.4 km/h 37 % 0 mm 12 W/m2
18:16 12.5 °C -1.8 °C 1029 hPa Calm   4.8 km/h 37 % 0 mm 9 W/m2
18:21 12.3 °C -1.6 °C 1029 hPa Calm   4.8 km/h 38 % 0 mm 7 W/m2
18:26 12.1 °C -1.1 °C 1029 hPa Calm   3.2 km/h 40 % 0 mm 0 W/m2
18:31 11.9 °C -1.6 °C 1029 hPa Calm   1.6 km/h 39 % 0 mm 0 W/m2
18:36 11.6 °C -1.2 °C 1029 hPa Calm     41 % 0 mm 0 W/m2
18:41 11.4 °C -1.1 °C 1029 hPa Calm     42 % 0 mm 0 W/m2
18:46 11.1 °C -1 °C 1029 hPa Calm     43 % 0 mm 0 W/m2
18:51 10.8 °C -0.7 °C 1029.3 hPa Calm     45 % 0 mm 0 W/m2
18:56 10.6 °C -0.8 °C 1029.3 hPa Calm     45 % 0 mm 0 W/m2
19:01 10.3 °C -0.8 °C 1029.3 hPa Calm     46 % 0 mm 0 W/m2
19:06 10.2 °C -0.3 °C 1029.3 hPa Calm     48 % 0 mm 0 W/m2
19:11 9.9 °C 0.2 °C 1029.3 hPa Calm     51 % 0 mm 0 W/m2
19:16 9.6 °C -0.1 °C 1029.3 hPa Calm     51 % 0 mm 0 W/m2
19:21 9.3 °C -0.1 °C 1029.3 hPa Calm     52 % 0 mm 0 W/m2
19:26 9.1 °C 0.8 °C 1029.3 hPa Calm     56 % 0 mm 0 W/m2
19:31 8.8 °C 0.7 °C 1029.3 hPa Calm     57 % 0 mm 0 W/m2
19:36 8.6 °C 1.1 °C 1029.3 hPa Calm     59 % 0 mm 0 W/m2
19:41 8.3 °C 1 °C 1029.3 hPa Calm     60 % 0 mm 0 W/m2
19:46 7.9 °C 1.1 °C 1029.3 hPa Calm     62 % 0 mm 0 W/m2
19:51 7.7 °C 0.9 °C 1029.3 hPa Calm     62 % 0 mm 0 W/m2
19:56 7.5 °C 0.9 °C 1029.3 hPa Calm     63 % 0 mm 0 W/m2
20:01 7.3 °C 0.9 °C 1029.3 hPa Calm     64 % 0 mm 0 W/m2
20:06 7.2 °C 0.8 °C 1029.7 hPa Calm     64 % 0 mm 0 W/m2
20:11 7 °C 1.1 °C 1029.7 hPa Calm     66 % 0 mm 0 W/m2
20:16 6.8 °C 1.1 °C 1029.7 hPa Calm   3.2 km/h 67 % 0 mm 0 W/m2
20:21 6.7 °C 0.6 °C 1029.7 hPa Calm   6.4 km/h 65 % 0 mm 0 W/m2
20:26 6.7 °C 0.4 °C 1029.3 hPa ENE 1.6 km/h 6.4 km/h 64 % 0 mm 0 W/m2
20:31 6.7 °C 0.6 °C 1029.7 hPa Calm   4.8 km/h 65 % 0 mm 0 W/m2
20:36 6.6 °C 0.5 °C 1029.7 hPa Calm     65 % 0 mm 0 W/m2
20:41 6.6 °C 0.5 °C 1029.7 hPa Calm     65 % 0 mm 0 W/m2
20:46 6.4 °C 0.3 °C 1029.7 hPa Calm     65 % 0 mm 0 W/m2
20:52 6.3 °C 0.4 °C 1029.7 hPa Calm     66 % 0 mm 0 W/m2
20:57 6.2 °C 0.3 °C 1029.7 hPa Calm     66 % 0 mm 0 W/m2
21:02 6.1 °C 0.2 °C 1029.3 hPa Calm     66 % 0 mm 0 W/m2
21:07 5.9 °C 0.4 °C 1029.3 hPa Calm     68 % 0 mm 0 W/m2
21:12 5.7 °C 0.4 °C 1029.3 hPa Calm     69 % 0 mm 0 W/m2
21:17 5.6 °C 0.6 °C 1029.3 hPa Calm     70 % 0 mm 0 W/m2
21:22 5.4 °C 0.6 °C 1029.7 hPa Calm     71 % 0 mm 0 W/m2
21:27 5.2 °C 0.6 °C 1029.7 hPa Calm     72 % 0 mm 0 W/m2
21:32 5.1 °C 0.4 °C 1029.7 hPa Calm     72 % 0 mm 0 W/m2
21:37 4.9 °C 0.4 °C 1029.3 hPa Calm     73 % 0 mm 0 W/m2
21:42 4.7 °C 0.3 °C 1029.3 hPa Calm     73 % 0 mm 0 W/m2
21:47 4.6 °C 0.3 °C 1029.3 hPa Calm     74 % 0 mm 0 W/m2
21:52 4.6 °C 0.6 °C 1029.3 hPa Calm     75 % 0 mm 0 W/m2
21:57 4.4 °C 0.3 °C 1029.3 hPa Calm     75 % 0 mm 0 W/m2
22:02 4.3 °C 0.3 °C 1029.3 hPa Calm     75 % 0 mm 0 W/m2
22:07 4.1 °C 0.2 °C 1029.3 hPa Calm     76 % 0 mm 0 W/m2
22:12 4 °C -0.1 °C 1029.3 hPa Calm     75 % 0 mm 0 W/m2
22:17 3.9 °C 0.1 °C 1029.3 hPa Calm     76 % 0 mm 0 W/m2
22:22 3.8 °C -0.1 °C 1029.3 hPa Calm     76 % 0 mm 0 W/m2
22:27 3.7 °C 0.1 °C 1029.3 hPa Calm     77 % 0 mm 0 W/m2
22:32 3.6 °C 0.1 °C 1029.3 hPa Calm     78 % 0 mm 0 W/m2
22:37 3.5 °C -0.2 °C 1029.3 hPa Calm     77 % 0 mm 0 W/m2
22:42 3.4 °C -0.1 °C 1029 hPa Calm     78 % 0 mm 0 W/m2
22:47 3.2 °C -0.3 °C 1029 hPa Calm     78 % 0 mm 0 W/m2
22:48 3.2 °C -0.3 °C 1029 hPa Calm     78 % 0 mm 0 W/m2
22:53 3.1 °C -0.2 °C 1029 hPa Calm     79 % 0 mm 0 W/m2
22:58 3 °C -0.3 °C 1029.3 hPa Calm     79 % 0 mm 0 W/m2
23:03 2.9 °C -0.4 °C 1029.3 hPa Calm   1.6 km/h 79 % 0 mm 0 W/m2
23:08 2.8 °C -0.5 °C 1029.3 hPa Calm   1.6 km/h 79 % 0 mm 0 W/m2
23:13 2.7 °C -0.6 °C 1029.3 hPa Calm     79 % 0 mm 0 W/m2
23:18 2.7 °C -0.6 °C 1029.3 hPa Calm     79 % 0 mm 0 W/m2
23:23 2.6 °C -0.7 °C 1029.3 hPa Calm     79 % 0 mm 0 W/m2
23:28 2.5 °C -0.8 °C 1029.3 hPa Calm     79 % 0 mm 0 W/m2
23:33 2.4 °C -0.7 °C 1029.3 hPa Calm     80 % 0 mm 0 W/m2
23:38 2.3 °C -0.6 °C 1029.3 hPa Calm     81 % 0 mm 0 W/m2
23:43 2.3 °C -0.6 °C 1029.3 hPa Calm     81 % 0 mm 0 W/m2
23:48 2.2 °C -0.7 °C 1029.3 hPa Calm     81 % 0 mm 0 W/m2
23:53 2.1 °C -0.8 °C 1029.3 hPa Calm     81 % 0 mm 0 W/m2
23:58 2 °C -0.8 °C 1029.3 hPa Calm     82 % 0 mm 0 W/m2
23:59 1.9 °C -0.8 °C 1029.3 hPa Calm     82 % 0 mm 0 W/m2
Delerius-Weather
Compliments of Weather Underground - 2.25 mb

Data updates at regular intervals.